Time;durP1;ratioP1;P1;durP2;ratioP2;P2;SDS_P1;SDS_P2;PMS_P1;PMS_P2;Temp;Humidity;BMP_temperature;BMP_pressure;BME280_temperature;BME280_humidity;BME280_pressure;Samples;Min_cycle;Max_cycle;Signal;HPM_P1;HPM_P2
2022/01/03 00:00:45;;;;;;;8.10;7.90;;;11.60;99.90;;;;;;5069307;28;20266;-82
2022/01/03 00:03:18;;;;;;;8.30;8.10;;;11.60;99.90;;;;;;5070463;28;20262;-82
2022/01/03 00:06:02;;;;;;;8.23;8.03;;;11.60;99.90;;;;;;5068351;28;20261;-82
2022/01/03 00:14:05;;;;;;;8.20;8.00;;;11.60;99.90;;;;;;5066009;28;20310;-82
2022/01/03 00:16:36;;;;;;;8.30;8.10;;;11.60;99.90;;;;;;5068206;28;20211;-82
2022/01/03 00:19:04;;;;;;;8.40;8.20;;;11.60;99.90;;;;;;5066527;28;20234;-82
2022/01/03 00:27:17;;;;;;;8.30;8.10;;;11.70;99.90;;;;;;5066274;28;20278;-82
2022/01/03 00:29:55;;;;;;;8.40;8.20;;;11.70;99.90;;;;;;5066314;28;20237;-82
2022/01/03 00:32:33;;;;;;;8.20;8.00;;;11.70;99.90;;;;;;5067316;28;20242;-82
2022/01/03 00:35:13;;;;;;;8.30;8.10;;;11.70;99.90;;;;;;5076478;28;20214;-81
2022/01/03 00:37:51;;;;;;;8.70;8.50;;;11.60;99.90;;;;;;5079487;28;20203;-82
2022/01/03 00:40:28;;;;;;;8.20;8.00;;;11.70;99.90;;;;;;5076089;28;20242;-82
2022/01/03 00:43:05;;;;;;;8.43;8.23;;;11.70;99.90;;;;;;5070706;28;20288;-82
2022/01/03 00:45:36;;;;;;;8.40;8.20;;;11.70;99.90;;;;;;5070009;28;20302;-82
2022/01/03 00:48:41;;;;;;;8.30;8.10;;;11.70;99.90;;;;;;5069047;28;20230;-83
2022/01/03 00:51:19;;;;;;;8.20;8.00;;;11.70;99.90;;;;;;4973869;28;20241;-82
2022/01/03 00:56:46;;;;;;;8.23;8.03;;;11.50;99.90;;;;;;5067823;28;20214;-83
2022/01/03 00:59:30;;;;;;;8.27;8.07;;;11.30;99.90;;;;;;5067931;28;20239;-83
2022/01/03 01:02:10;;;;;;;8.47;8.27;;;11.30;99.90;;;;;;5067031;28;20227;-83
2022/01/03 01:04:42;;;;;;;8.47;8.27;;;11.30;99.90;;;;;;5067230;28;20396;-82
2022/01/03 01:12:51;;;;;;;8.67;8.47;;;11.60;99.90;;;;;;5071754;28;20238;-82
2022/01/03 01:15:57;;;;;;;8.50;8.30;;;11.60;99.90;;;;;;5075142;28;20214;-83
2022/01/03 01:18:42;;;;;;;8.80;8.60;;;11.70;99.90;;;;;;5077143;28;20253;-84
2022/01/03 01:24:07;;;;;;;8.30;8.10;;;11.80;99.90;;;;;;5076381;28;20233;-82
2022/01/03 01:32:31;;;;;;;8.30;8.10;;;11.90;99.90;;;;;;5069757;28;20230;-83
2022/01/03 01:37:46;;;;;;;8.70;8.50;;;12.00;99.90;;;;;;5068896;28;20270;-82
2022/01/03 01:40:15;;;;;;;8.80;8.60;;;12.00;99.90;;;;;;5071844;28;20241;-82
2022/01/03 01:42:54;;;;;;;8.87;8.67;;;12.00;99.90;;;;;;5069019;28;20241;-82
2022/01/03 01:45:32;;;;;;;8.77;8.57;;;12.00;99.90;;;;;;5069082;28;20223;-81
2022/01/03 01:48:00;;;;;;;8.80;8.60;;;12.10;99.90;;;;;;5067028;28;20284;-82
2022/01/03 01:50:31;;;;;;;8.57;8.37;;;12.00;99.90;;;;;;5068744;28;20341;-82
2022/01/03 01:52:59;;;;;;;8.60;8.40;;;12.10;99.90;;;;;;5068816;28;20231;-82
2022/01/03 01:55:29;;;;;;;8.70;8.50;;;12.00;99.90;;;;;;5077482;28;20267;-81
2022/01/03 01:58:07;;;;;;;8.60;8.40;;;12.00;99.90;;;;;;5079040;28;20219;-81
2022/01/03 02:00:38;;;;;;;8.60;8.40;;;12.00;99.90;;;;;;5078504;28;20312;-81
2022/01/03 02:03:25;;;;;;;8.70;8.50;;;12.00;99.90;;;;;;5075552;28;20288;-82
2022/01/03 02:06:11;;;;;;;8.60;8.40;;;12.00;99.90;;;;;;5068433;28;20245;-82
2022/01/03 02:08:49;;;;;;;8.63;8.43;;;12.00;99.90;;;;;;5067231;28;20314;-82
2022/01/03 02:11:30;;;;;;;8.63;8.43;;;12.10;99.90;;;;;;5066019;28;20280;-82
2022/01/03 02:16:55;;;;;;;8.30;8.10;;;12.00;99.90;;;;;;5064138;28;20291;-83
2022/01/03 02:19:23;;;;;;;8.50;8.30;;;11.00;99.90;;;;;;5063618;28;20309;-81
2022/01/03 02:21:54;;;;;;;9.07;8.77;;;9.60;99.90;;;;;;5063777;28;20234;-81
2022/01/03 02:24:22;;;;;;;8.90;8.60;;;8.90;99.90;;;;;;5062730;28;20223;-81
2022/01/03 02:26:50;;;;;;;9.30;9.00;;;8.40;99.90;;;;;;5062035;28;20231;-81
2022/01/03 02:29:19;;;;;;;9.20;8.90;;;8.10;99.90;;;;;;5063661;28;20235;-81
2022/01/03 02:31:49;;;;;;;9.30;9.00;;;7.90;99.90;;;;;;5065701;28;20270;-81
2022/01/03 02:34:19;;;;;;;8.70;8.50;;;7.80;99.90;;;;;;5065692;28;20297;-81
2022/01/03 02:36:48;;;;;;;8.70;8.50;;;7.70;99.90;;;;;;5065768;28;20285;-81
2022/01/03 02:39:20;;;;;;;9.07;8.77;;;7.60;99.90;;;;;;5066484;28;20231;-82
2022/01/03 02:41:48;;;;;;;8.80;8.50;;;7.60;99.90;;;;;;5066336;28;20234;-82
2022/01/03 02:44:19;;;;;;;9.30;9.00;;;7.50;99.90;;;;;;5066275;28;20231;-83
2022/01/03 02:46:47;;;;;;;9.30;9.00;;;7.60;99.90;;;;;;5065573;28;20211;-83
2022/01/03 02:49:16;;;;;;;9.30;9.00;;;7.60;99.90;;;;;;5066107;28;20239;-82
2022/01/03 02:51:49;;;;;;;8.60;8.40;;;7.50;99.90;;;;;;5065651;28;20250;-83
2022/01/03 02:54:23;;;;;;;9.30;9.00;;;7.50;99.90;;;;;;5064537;28;20231;-82
2022/01/03 02:56:52;;;;;;;9.20;8.90;;;7.50;99.90;;;;;;5066016;28;20226;-82
2022/01/03 02:59:21;;;;;;;9.20;8.90;;;7.60;99.90;;;;;;5065048;28;20238;-81
2022/01/03 03:01:51;;;;;;;9.20;8.90;;;7.60;99.90;;;;;;5066735;28;20298;-81
2022/01/03 03:04:20;;;;;;;9.13;8.83;;;7.50;99.90;;;;;;5066959;28;20227;-80
2022/01/03 03:06:50;;;;;;;8.93;8.63;;;7.50;99.90;;;;;;5066134;28;20223;-80
2022/01/03 03:09:28;;;;;;;8.80;8.50;;;7.50;99.90;;;;;;5065851;28;20238;-81
2022/01/03 03:11:58;;;;;;;8.60;8.40;;;7.50;99.90;;;;;;5066412;28;20227;-81
2022/01/03 03:14:27;;;;;;;9.07;8.77;;;7.50;99.90;;;;;;5066052;28;20221;-81
2022/01/03 03:16:56;;;;;;;9.00;8.70;;;7.60;99.90;;;;;;5065436;28;20226;-81
2022/01/03 03:19:25;;;;;;;8.60;8.37;;;7.60;99.90;;;;;;5065552;28;20234;-81
2022/01/03 03:21:55;;;;;;;8.40;8.20;;;7.60;99.90;;;;;;5065071;28;20235;-81
2022/01/03 03:27:13;;;;;;;9.00;8.70;;;7.70;99.90;;;;;;5065364;28;20234;-81
2022/01/03 03:32:30;;;;;;;8.90;8.60;;;7.70;99.90;;;;;;5061894;28;20337;-81
2022/01/03 03:34:59;;;;;;;9.00;8.70;;;7.70;99.90;;;;;;5064686;28;20273;-81
2022/01/03 03:37:29;;;;;;;9.07;8.77;;;7.70;99.90;;;;;;5065862;28;20226;-81
2022/01/03 03:40:01;;;;;;;8.83;8.53;;;7.70;99.90;;;;;;5065852;28;20235;-81
2022/01/03 03:42:28;;;;;;;9.33;9.03;;;7.70;99.90;;;;;;5065092;28;20289;-80
2022/01/03 03:44:58;;;;;;;9.10;8.80;;;7.70;99.90;;;;;;5066158;28;20223;-83
2022/01/03 03:47:27;;;;;;;9.10;8.80;;;7.70;99.90;;;;;;5067865;28;20242;-83
2022/01/03 03:49:57;;;;;;;9.17;8.87;;;7.70;99.90;;;;;;5080628;28;20253;-83
2022/01/03 03:52:26;;;;;;;9.00;8.70;;;7.70;99.90;;;;;;5080901;28;20215;-83
2022/01/03 03:54:55;;;;;;;9.27;8.97;;;7.70;99.90;;;;;;5080446;28;20246;-82
2022/01/03 03:57:27;;;;;;;9.20;8.90;;;7.70;99.90;;;;;;5071636;28;20223;-82
2022/01/03 03:59:55;;;;;;;9.23;8.93;;;7.70;99.90;;;;;;5068378;28;20270;-81
2022/01/03 04:02:23;;;;;;;9.10;8.80;;;7.70;99.90;;;;;;5066756;28;20227;-81
2022/01/03 04:04:54;;;;;;;8.83;8.57;;;7.70;99.90;;;;;;5075600;28;20227;-82
2022/01/03 04:07:22;;;;;;;9.00;8.70;;;7.70;99.90;;;;;;5071361;28;20242;-82
2022/01/03 04:09:51;;;;;;;9.17;8.87;;;7.70;99.90;;;;;;5068067;28;20239;-82
2022/01/03 04:12:21;;;;;;;9.20;8.90;;;7.70;99.90;;;;;;5067687;28;20447;-81
2022/01/03 04:14:54;;;;;;;9.23;8.93;;;7.70;99.90;;;;;;5065552;28;20242;-82
2022/01/03 04:17:21;;;;;;;8.90;8.60;;;7.70;99.90;;;;;;5064634;28;20385;-81
2022/01/03 04:19:49;;;;;;;9.20;8.90;;;7.60;99.90;;;;;;5064355;28;20239;-81
2022/01/03 04:22:20;;;;;;;9.00;8.70;;;7.60;99.90;;;;;;5074227;28;20238;-81
2022/01/03 04:24:49;;;;;;;8.87;8.60;;;7.60;99.90;;;;;;5075088;28;20230;-81
2022/01/03 04:27:18;;;;;;;8.83;8.63;;;7.60;99.90;;;;;;5065625;28;20265;-81
2022/01/03 04:29:47;;;;;;;9.10;8.80;;;7.60;99.90;;;;;;5064721;28;20235;-82
2022/01/03 04:32:25;;;;;;;9.20;8.90;;;7.60;99.90;;;;;;5064992;28;20241;-82
2022/01/03 04:34:55;;;;;;;8.97;8.67;;;7.60;99.90;;;;;;5071177;28;20226;-82
2022/01/03 04:37:24;;;;;;;8.80;8.60;;;7.60;99.90;;;;;;5079278;28;20239;-81
2022/01/03 04:39:54;;;;;;;8.70;8.50;;;7.60;99.90;;;;;;5077659;28;20223;-82
2022/01/03 04:42:23;;;;;;;9.03;8.73;;;7.60;99.90;;;;;;5066943;28;20239;-81
2022/01/03 04:44:52;;;;;;;8.80;8.60;;;7.60;99.90;;;;;;5065907;28;20293;-81
2022/01/03 04:47:31;;;;;;;8.80;8.60;;;7.70;99.90;;;;;;5065309;28;20223;-81
2022/01/03 04:50:00;;;;;;;8.87;8.67;;;7.70;99.90;;;;;;5063904;28;20242;-82
2022/01/03 04:52:29;;;;;;;8.87;8.63;;;7.80;99.90;;;;;;5063341;28;20235;-81
2022/01/03 04:55:01;;;;;;;8.90;8.70;;;7.80;99.90;;;;;;5063074;28;20235;-82
2022/01/03 04:57:29;;;;;;;9.20;8.90;;;7.80;99.90;;;;;;5062815;28;20277;-82
2022/01/03 04:59:59;;;;;;;8.80;8.60;;;7.80;99.90;;;;;;5061604;28;20243;-82
2022/01/03 05:02:28;;;;;;;8.60;8.40;;;7.80;99.90;;;;;;5083136;22;20245;-82
2022/01/03 05:04:56;;;;;;;9.00;8.70;;;7.90;99.90;;;;;;5062422;28;20227;-82
2022/01/03 05:07:24;;;;;;;8.80;8.60;;;7.90;99.90;;;;;;5061525;28;20280;-82
2022/01/03 05:09:52;;;;;;;9.00;8.70;;;7.90;99.90;;;;;;5061292;28;20231;-82
2022/01/03 05:12:20;;;;;;;9.00;8.70;;;7.90;99.90;;;;;;5075968;28;20292;-82
2022/01/03 05:14:48;;;;;;;9.10;8.80;;;7.80;99.90;;;;;;5081143;28;20230;-82
2022/01/03 05:17:16;;;;;;;9.13;8.83;;;7.80;99.90;;;;;;5082224;28;20219;-81
2022/01/03 05:19:45;;;;;;;8.90;8.60;;;7.80;99.90;;;;;;5083339;28;20287;-80
2022/01/03 05:22:13;;;;;;;9.20;8.90;;;7.80;99.90;;;;;;5069931;28;20250;-81
2022/01/03 05:24:41;;;;;;;9.10;8.80;;;7.90;99.90;;;;;;5081161;28;20234;-82
2022/01/03 05:27:09;;;;;;;9.00;8.70;;;7.90;99.90;;;;;;5081626;28;20271;-83
2022/01/03 05:29:37;;;;;;;9.10;8.80;;;7.90;99.90;;;;;;5081325;28;20250;-82
2022/01/03 05:32:06;;;;;;;8.80;8.57;;;7.90;99.90;;;;;;5081290;28;20237;-83
2022/01/03 05:34:34;;;;;;;9.10;8.80;;;7.90;99.90;;;;;;5081606;28;20230;-83
2022/01/03 05:37:03;;;;;;;8.93;8.63;;;7.90;99.90;;;;;;5081542;28;20252;-83
2022/01/03 05:39:31;;;;;;;8.90;8.60;;;7.90;99.90;;;;;;5081028;28;20260;-83
2022/01/03 05:41:59;;;;;;;9.07;8.77;;;7.90;99.90;;;;;;5080192;28;20280;-83
2022/01/03 05:44:27;;;;;;;9.10;8.80;;;7.90;99.90;;;;;;5080941;28;20238;-83
2022/01/03 05:46:55;;;;;;;8.93;8.63;;;7.90;99.90;;;;;;5081248;28;20309;-82
2022/01/03 05:49:23;;;;;;;9.17;8.87;;;7.90;99.90;;;;;;5081811;28;20288;-83
2022/01/03 05:51:50;;;;;;;9.03;8.73;;;7.80;99.90;;;;;;5081150;28;20261;-83
2022/01/03 05:54:20;;;;;;;9.13;8.83;;;7.80;99.90;;;;;;5079980;28;20249;-83
2022/01/03 05:56:48;;;;;;;9.30;9.00;;;7.70;99.90;;;;;;5079770;28;20231;-83
2022/01/03 05:59:16;;;;;;;9.17;8.87;;;7.70;99.90;;;;;;5081341;28;20325;-82
2022/01/03 06:01:45;;;;;;;9.30;9.00;;;7.80;99.90;;;;;;5081099;28;20234;-83
2022/01/03 06:04:20;;;;;;;8.83;8.53;;;7.70;99.90;;;;;;5084974;28;20226;-83
2022/01/03 06:07:01;;;;;;;9.07;8.77;;;7.70;99.90;;;;;;5084898;28;20248;-83
2022/01/03 06:09:30;;;;;;;8.90;8.60;;;7.60;99.90;;;;;;5084151;28;20238;-82
2022/01/03 06:11:59;;;;;;;9.10;8.80;;;7.50;99.90;;;;;;5079421;28;20239;-83
2022/01/03 06:14:29;;;;;;;8.73;8.53;;;7.40;99.90;;;;;;5064113;28;20325;-84
2022/01/03 06:17:00;;;;;;;8.90;8.60;;;7.50;99.90;;;;;;5071837;28;20219;-83
2022/01/03 06:19:29;;;;;;;9.10;8.80;;;7.40;99.90;;;;;;5064302;28;20227;-82
2022/01/03 06:21:58;;;;;;;9.00;8.70;;;7.40;99.90;;;;;;5064831;28;20249;-85
2022/01/03 06:24:26;;;;;;;9.20;8.90;;;7.40;99.90;;;;;;5065302;28;20223;-85
2022/01/03 06:26:56;;;;;;;9.10;8.80;;;7.40;99.90;;;;;;5064835;28;20222;-84
2022/01/03 06:29:24;;;;;;;9.10;8.80;;;7.40;99.90;;;;;;5064600;28;20227;-83
2022/01/03 06:31:52;;;;;;;9.10;8.80;;;7.40;99.90;;;;;;5063321;28;20235;-84
2022/01/03 06:34:20;;;;;;;9.03;8.73;;;7.50;99.90;;;;;;5064113;28;20235;-84
2022/01/03 06:36:49;;;;;;;9.10;8.80;;;7.40;99.90;;;;;;5064319;28;20297;-85
2022/01/03 06:39:17;;;;;;;9.00;8.70;;;7.50;99.90;;;;;;5063754;28;20245;-84
2022/01/03 06:41:45;;;;;;;8.90;8.60;;;7.40;99.90;;;;;;5063840;28;20234;-84
2022/01/03 06:44:15;;;;;;;9.20;8.90;;;7.40;99.90;;;;;;5063697;28;20229;-83
2022/01/03 06:46:43;;;;;;;8.97;8.67;;;7.40;99.90;;;;;;5062874;28;20254;-83
2022/01/03 06:49:11;;;;;;;9.10;8.80;;;7.40;99.90;;;;;;5062897;28;20231;-84
2022/01/03 06:51:39;;;;;;;9.10;8.80;;;7.40;99.90;;;;;;5063021;28;20238;-85
2022/01/03 06:54:10;;;;;;;9.03;8.73;;;7.50;99.90;;;;;;5062935;28;20230;-84
2022/01/03 06:56:42;;;;;;;9.30;9.00;;;7.50;99.90;;;;;;5062459;28;20473;-85
2022/01/03 06:59:10;;;;;;;9.10;8.80;;;7.40;99.90;;;;;;5060887;28;20230;-83
2022/01/03 07:01:39;;;;;;;9.60;9.30;;;7.50;99.90;;;;;;5069915;28;20239;-85
2022/01/03 07:04:07;;;;;;;9.70;9.40;;;7.50;99.90;;;;;;5066752;28;20231;-83
2022/01/03 07:06:36;;;;;;;9.47;9.17;;;7.50;99.90;;;;;;5066273;28;20277;-84
2022/01/03 07:09:06;;;;;;;9.40;9.10;;;7.40;99.90;;;;;;5067048;28;20243;-84
2022/01/03 07:11:35;;;;;;;9.70;9.40;;;7.40;99.90;;;;;;5066181;28;20262;-83
2022/01/03 07:18:56;;;;;;;9.00;8.70;;;7.40;99.90;;;;;;5076889;28;20241;-85
2022/01/03 07:19:47;;;;;;;9.37;9.07;;;7.50;99.90;;;;;;5085044;28;20258;-85
2022/01/03 07:22:16;;;;;;;9.33;9.03;;;7.50;99.90;;;;;;5085866;28;20240;-84
2022/01/03 07:24:44;;;;;;;9.80;9.50;;;7.60;99.90;;;;;;5087831;28;20258;-84
2022/01/03 07:27:15;;;;;;;9.50;9.20;;;7.60;99.90;;;;;;5085058;28;20280;-84
2022/01/03 07:29:44;;;;;;;9.40;9.10;;;7.60;99.90;;;;;;5084452;28;20238;-83
2022/01/03 07:32:14;;;;;;;9.30;9.00;;;7.60;99.90;;;;;;5082958;28;20781;-84
2022/01/03 07:34:42;;;;;;;9.30;9.00;;;7.60;99.90;;;;;;5082649;28;20265;-85
2022/01/03 07:37:16;;;;;;;9.30;9.00;;;7.70;99.90;;;;;;5082647;28;20257;-84
2022/01/03 07:39:44;;;;;;;9.20;8.90;;;7.70;99.90;;;;;;5083252;28;20218;-85
2022/01/03 07:42:12;;;;;;;9.27;8.97;;;7.70;99.90;;;;;;5080732;28;20307;-85
2022/01/03 07:44:43;;;;;;;9.20;8.90;;;7.70;99.90;;;;;;5063784;28;20218;-86
2022/01/03 07:47:12;;;;;;;9.00;8.70;;;7.70;99.90;;;;;;5064251;28;20231;-85
2022/01/03 07:49:40;;;;;;;9.20;8.90;;;7.70;99.90;;;;;;5071144;28;20254;-84
2022/01/03 07:52:09;;;;;;;8.60;8.40;;;7.70;99.90;;;;;;5081171;28;20296;-84
2022/01/03 07:54:37;;;;;;;8.90;8.60;;;7.70;99.90;;;;;;5082883;28;20237;-85
2022/01/03 07:57:06;;;;;;;8.73;8.50;;;7.60;99.90;;;;;;5089193;28;20233;-85
2022/01/03 07:59:34;;;;;;;9.00;8.70;;;7.60;99.90;;;;;;5085750;28;20241;-85
2022/01/03 08:02:02;;;;;;;8.50;8.30;;;7.60;99.90;;;;;;5085015;28;20245;-84
2022/01/03 08:04:31;;;;;;;8.90;8.60;;;7.60;99.90;;;;;;5086721;28;20232;-85
2022/01/03 08:06:59;;;;;;;8.60;8.40;;;7.60;99.90;;;;;;5086100;28;20238;-84
2022/01/03 08:09:27;;;;;;;8.70;8.50;;;7.70;99.90;;;;;;5097047;28;20376;-84
2022/01/03 08:11:55;;;;;;;8.40;8.20;;;7.70;99.90;;;;;;5098947;28;20228;-85
2022/01/03 08:14:23;;;;;;;8.97;8.67;;;7.70;99.90;;;;;;5097747;28;20236;-84
2022/01/03 08:16:53;;;;;;;9.00;8.70;;;7.70;99.90;;;;;;5099916;27;20229;-85
2022/01/03 08:19:21;;;;;;;8.90;8.60;;;7.70;99.90;;;;;;5101248;27;20269;-85
2022/01/03 08:21:50;;;;;;;8.90;8.60;;;7.80;99.90;;;;;;5100830;27;20222;-85
2022/01/03 08:24:18;;;;;;;8.77;8.53;;;7.80;99.90;;;;;;5100234;27;20224;-85
2022/01/03 08:26:46;;;;;;;9.13;8.83;;;7.80;99.90;;;;;;5099844;27;20248;-84
2022/01/03 08:29:14;;;;;;;8.70;8.50;;;7.80;99.90;;;;;;5100977;27;20280;-85
2022/01/03 08:31:42;;;;;;;8.77;8.57;;;7.90;99.90;;;;;;5100627;27;20298;-84
2022/01/03 08:34:10;;;;;;;8.80;8.60;;;7.90;99.90;;;;;;5101097;27;20224;-85
2022/01/03 08:36:38;;;;;;;8.47;8.27;;;7.90;99.90;;;;;;5100836;27;20206;-85
2022/01/03 08:40:18;;;;;;;8.60;8.40;;;8.00;99.90;;;;;;5100490;27;20218;-85
2022/01/03 08:42:47;;;;;;;9.03;8.73;;;8.10;99.90;;;;;;5096546;27;20227;-84
2022/01/03 08:45:19;;;;;;;9.13;8.83;;;8.20;99.90;;;;;;5098482;27;20222;-85
2022/01/03 08:47:48;;;;;;;8.50;8.30;;;8.20;99.90;;;;;;5100247;27;20387;-83
2022/01/03 08:50:18;;;;;;;8.57;8.37;;;8.30;99.90;;;;;;5096610;28;20230;-84
2022/01/03 08:52:48;;;;;;;8.70;8.50;;;8.30;99.90;;;;;;5093844;28;20260;-84
2022/01/03 08:55:18;;;;;;;8.40;8.20;;;8.30;99.90;;;;;;5087910;28;20230;-85
2022/01/03 08:57:51;;;;;;;8.60;8.40;;;8.30;99.90;;;;;;5080994;28;20236;-84
2022/01/03 09:00:20;;;;;;;8.77;8.57;;;8.40;99.90;;;;;;5081277;28;20298;-84
2022/01/03 09:02:48;;;;;;;8.70;8.50;;;8.50;99.90;;;;;;5081016;28;20253;-84
2022/01/03 09:05:16;;;;;;;8.67;8.47;;;8.60;99.90;;;;;;5080631;28;20283;-84
2022/01/03 09:07:44;;;;;;;9.17;8.87;;;8.70;99.90;;;;;;5081400;28;20249;-84
2022/01/03 09:10:12;;;;;;;9.00;8.70;;;8.80;99.90;;;;;;5082007;28;20237;-84
2022/01/03 09:12:41;;;;;;;9.27;8.97;;;8.90;99.90;;;;;;5082128;28;20265;-84
2022/01/03 09:15:10;;;;;;;9.40;9.10;;;9.00;99.90;;;;;;5080916;28;20279;-84
2022/01/03 09:17:40;;;;;;;9.30;9.00;;;9.10;99.90;;;;;;5082001;28;20226;-84
2022/01/03 09:20:09;;;;;;;9.23;8.93;;;9.20;99.90;;;;;;5082449;28;20249;-84
2022/01/03 09:22:42;;;;;;;9.37;9.07;;;9.10;99.90;;;;;;5082030;28;20238;-84
2022/01/03 09:30:38;;;;;;;9.23;8.93;;;9.30;99.90;;;;;;5069134;28;20232;-84
2022/01/03 09:33:06;;;;;;;9.10;8.80;;;9.40;99.90;;;;;;5082258;28;20234;-84
2022/01/03 09:35:34;;;;;;;9.30;9.00;;;9.50;99.90;;;;;;5083136;28;20230;-84
2022/01/03 09:38:02;;;;;;;9.13;8.83;;;9.60;99.90;;;;;;5082592;28;20344;-83
2022/01/03 09:40:31;;;;;;;8.93;8.63;;;9.60;99.90;;;;;;5081342;28;20288;-83
2022/01/03 09:43:01;;;;;;;8.80;8.60;;;9.70;99.90;;;;;;5061168;28;20230;-85
2022/01/03 09:45:32;;;;;;;9.10;8.80;;;9.80;99.90;;;;;;5056612;28;20222;-85
2022/01/03 09:48:04;;;;;;;8.90;8.60;;;9.80;99.90;;;;;;5040980;28;20233;-82
2022/01/03 09:50:37;;;;;;;9.10;8.80;;;9.80;99.90;;;;;;5050209;28;20222;-83
2022/01/03 09:53:06;;;;;;;9.13;8.83;;;9.80;99.90;;;;;;5059273;28;20231;-83
2022/01/03 09:55:35;;;;;;;9.40;9.10;;;9.80;99.90;;;;;;5053797;28;20242;-85
2022/01/03 09:58:04;;;;;;;9.20;8.90;;;9.80;99.90;;;;;;5043089;28;21021;-84
2022/01/03 10:00:31;;;;;;;9.07;8.77;;;9.80;99.90;;;;;;5055082;28;20225;-84
2022/01/03 10:03:01;;;;;;;9.37;9.07;;;9.90;99.90;;;;;;5082730;28;20265;-83
2022/01/03 10:05:29;;;;;;;9.10;8.80;;;9.90;99.90;;;;;;5082214;28;20222;-83
2022/01/03 10:08:02;;;;;;;9.10;8.80;;;9.80;99.90;;;;;;5061747;28;20250;-84
2022/01/03 10:10:30;;;;;;;9.30;9.00;;;9.80;99.90;;;;;;5064355;28;20222;-83
2022/01/03 10:13:00;;;;;;;9.10;8.80;;;9.80;99.90;;;;;;5054909;28;20259;-84
2022/01/03 10:15:29;;;;;;;9.10;8.80;;;9.80;99.90;;;;;;5042552;28;20327;-83
2022/01/03 10:17:57;;;;;;;8.90;8.70;;;9.80;99.90;;;;;;5040713;28;20294;-80
2022/01/03 10:20:32;;;;;;;9.10;8.80;;;9.80;99.90;;;;;;5041831;28;20235;-83
2022/01/03 10:23:10;;;;;;;9.50;9.20;;;9.80;99.90;;;;;;5047591;28;20268;-84
2022/01/03 10:25:38;;;;;;;9.20;8.90;;;9.80;99.90;;;;;;5059069;28;20227;-84
2022/01/03 10:28:07;;;;;;;9.70;9.40;;;9.90;99.90;;;;;;5041683;28;20223;-84
2022/01/03 10:30:40;;;;;;;9.43;9.13;;;9.80;99.90;;;;;;5042681;28;20286;-84
2022/01/03 10:33:11;;;;;;;9.40;9.10;;;9.80;99.90;;;;;;5041630;28;20235;-84
2022/01/03 10:35:44;;;;;;;9.10;8.80;;;9.80;99.90;;;;;;5043680;28;20302;-84
2022/01/03 10:38:13;;;;;;;8.93;8.63;;;9.90;99.90;;;;;;5061721;28;20257;-82
2022/01/03 10:40:40;;;;;;;9.10;8.80;;;9.90;99.90;;;;;;5052632;28;20269;-82
2022/01/03 10:43:19;;;;;;;8.97;8.70;;;9.90;99.90;;;;;;5047190;28;20243;-82
2022/01/03 10:45:48;;;;;;;9.10;8.80;;;9.90;99.90;;;;;;5072747;28;20229;-84
2022/01/03 10:48:30;;;;;;;9.30;9.00;;;9.90;99.90;;;;;;5065053;28;20227;-84
2022/01/03 10:51:03;;;;;;;9.37;9.07;;;9.80;99.90;;;;;;5063714;28;20265;-84
2022/01/03 10:53:37;;;;;;;9.30;9.00;;;9.70;99.90;;;;;;5046642;28;20238;-83
2022/01/03 10:56:32;;;;;;;8.93;8.63;;;9.70;99.90;;;;;;5043781;28;20231;-82
2022/01/03 10:59:05;;;;;;;9.13;8.83;;;9.50;99.90;;;;;;5044767;28;20285;-83
2022/01/03 11:01:33;;;;;;;9.30;9.00;;;9.40;99.90;;;;;;5053216;28;20238;-83
2022/01/03 11:04:03;;;;;;;9.00;8.70;;;9.20;99.90;;;;;;5110551;22;20320;-83
2022/01/03 11:06:49;;;;;;;9.13;8.83;;;9.10;99.90;;;;;;5098467;28;20232;-84
2022/01/03 11:12:20;;;;;;;9.20;8.90;;;9.00;99.90;;;;;;5110433;28;20306;-84
2022/01/03 11:14:49;;;;;;;9.33;9.03;;;9.00;99.90;;;;;;5117326;28;20339;-81
2022/01/03 11:17:27;;;;;;;9.30;9.00;;;9.00;99.90;;;;;;5135018;28;20213;-83
2022/01/03 11:19:59;;;;;;;9.00;8.70;;;9.00;99.90;;;;;;5109513;28;20237;-82
2022/01/03 11:22:45;;;;;;;9.00;8.70;;;9.00;99.90;;;;;;5119847;28;20246;-83
2022/01/03 11:25:14;;;;;;;9.00;8.70;;;9.00;99.90;;;;;;5130049;28;20225;-84
2022/01/03 11:27:47;;;;;;;9.00;8.70;;;9.10;99.90;;;;;;5111741;28;20225;-83
2022/01/03 11:30:14;;;;;;;9.33;9.03;;;9.10;99.90;;;;;;5120991;28;20221;-83
2022/01/03 11:33:12;;;;;;;9.50;9.20;;;9.20;99.90;;;;;;5108222;28;20240;-83
2022/01/03 11:35:48;;;;;;;9.63;9.33;;;9.20;99.90;;;;;;5124298;28;20259;-82
2022/01/03 11:38:28;;;;;;;9.20;8.90;;;9.30;99.90;;;;;;5126949;27;20239;-81
2022/01/03 11:40:56;;;;;;;9.70;9.40;;;9.30;99.90;;;;;;5124638;27;20215;-82
2022/01/03 11:43:26;;;;;;;9.67;9.37;;;9.40;99.90;;;;;;5110027;28;20233;-81
2022/01/03 11:45:55;;;;;;;9.50;9.20;;;9.40;99.90;;;;;;5107174;28;20234;-84
2022/01/03 11:48:26;;;;;;;9.70;9.40;;;9.50;99.90;;;;;;5107777;28;20320;-83
2022/01/03 11:50:55;;;;;;;9.67;9.37;;;9.50;99.90;;;;;;5106732;28;20221;-83
2022/01/03 11:56:20;;;;;;;9.87;9.57;;;9.60;99.90;;;;;;5088719;28;20245;-83
2022/01/03 11:59:02;;;;;;;9.57;9.27;;;9.70;99.90;;;;;;5101220;28;20225;-84
2022/01/03 12:04:25;;;;;;;9.60;9.30;;;9.70;99.90;;;;;;5126197;28;20307;-82
2022/01/03 12:07:10;;;;;;;9.70;9.40;;;9.70;99.90;;;;;;5109252;28;20234;-83
2022/01/03 12:09:49;;;;;;;9.60;9.30;;;9.80;99.90;;;;;;5107333;28;20289;-82
2022/01/03 12:12:36;;;;;;;9.50;9.20;;;9.80;99.90;;;;;;5106742;28;20237;-85
2022/01/03 12:15:06;;;;;;;9.50;9.20;;;9.80;99.90;;;;;;5120078;28;20236;-84
2022/01/03 12:17:45;;;;;;;9.60;9.30;;;9.80;99.90;;;;;;5126659;28;20225;-84
2022/01/03 12:20:14;;;;;;;9.27;8.97;;;9.80;99.90;;;;;;5106301;28;20225;-84
2022/01/03 12:22:50;;;;;;;9.30;9.00;;;9.90;99.90;;;;;;5106813;28;20234;-84
2022/01/03 12:25:43;;;;;;;9.17;8.87;;;9.90;99.90;;;;;;5106719;28;20229;-82
2022/01/03 12:28:17;;;;;;;9.27;8.97;;;9.90;99.90;;;;;;5105912;28;20226;-82
2022/01/03 12:33:41;;;;;;;9.20;8.90;;;9.90;99.90;;;;;;5106066;28;20297;-82
2022/01/03 12:36:20;;;;;;;8.83;8.63;;;9.90;99.90;;;;;;5106654;28;20256;-81
2022/01/03 12:39:08;;;;;;;9.30;9.00;;;9.90;99.90;;;;;;5120504;27;20228;-80
2022/01/03 12:41:47;;;;;;;9.40;9.10;;;9.90;99.90;;;;;;5120787;27;20218;-81
2022/01/03 12:47:27;;;;;;;9.20;8.90;;;9.80;99.90;;;;;;5108059;28;20270;-84
2022/01/03 12:50:22;;;;;;;9.17;8.87;;;9.80;99.90;;;;;;5107118;28;20230;-82
2022/01/03 12:52:54;;;;;;;9.30;9.00;;;9.80;99.90;;;;;;5105369;28;20294;-82
2022/01/03 12:55:48;;;;;;;9.50;9.20;;;9.70;99.90;;;;;;5105004;28;20241;-82
2022/01/03 13:01:33;;;;;;;9.70;9.40;;;9.70;99.90;;;;;;5086915;28;20226;-81
2022/01/03 13:04:28;;;;;;;9.67;9.37;;;9.70;99.90;;;;;;5086090;28;20261;-82
2022/01/03 13:07:05;;;;;;;9.30;9.00;;;9.70;99.90;;;;;;5088754;28;20234;-81
2022/01/03 13:09:45;;;;;;;9.30;9.00;;;9.70;99.90;;;;;;5092436;28;20255;-80
2022/01/03 13:12:13;;;;;;;9.10;8.80;;;9.70;99.90;;;;;;5088627;28;20238;-81
2022/01/03 13:14:50;;;;;;;9.50;9.20;;;9.70;99.90;;;;;;5090577;28;20225;-81
2022/01/03 13:17:20;;;;;;;9.23;8.93;;;9.70;99.90;;;;;;5089528;28;20274;-82
2022/01/03 13:20:00;;;;;;;9.47;9.17;;;9.70;99.90;;;;;;5086998;28;20218;-84
2022/01/03 13:22:29;;;;;;;9.40;9.10;;;9.80;99.90;;;;;;5087541;28;20230;-82
2022/01/03 13:25:00;;;;;;;9.20;8.90;;;9.80;99.90;;;;;;5086964;28;20233;-83
2022/01/03 13:27:30;;;;;;;9.60;9.30;;;9.70;99.90;;;;;;5084241;28;20593;-83
2022/01/03 13:30:06;;;;;;;9.50;9.20;;;9.70;99.90;;;;;;5085028;28;20229;-81
2022/01/03 13:32:36;;;;;;;9.20;8.90;;;9.70;99.90;;;;;;5085332;28;20238;-81
2022/01/03 13:35:08;;;;;;;9.70;9.40;;;9.70;99.90;;;;;;5085769;28;20328;-81
2022/01/03 13:37:36;;;;;;;9.60;9.30;;;9.70;99.90;;;;;;5083692;28;20226;-81
2022/01/03 13:40:05;;;;;;;9.50;9.20;;;9.60;99.90;;;;;;5086052;28;20230;-81
2022/01/03 13:42:42;;;;;;;9.53;9.23;;;9.60;99.90;;;;;;5085339;28;20265;-82
2022/01/03 13:49:11;;;;;;;9.60;9.30;;;9.60;99.90;;;;;;5092765;28;20218;-79
2022/01/03 13:51:05;;;;;;;9.47;9.17;;;9.60;99.90;;;;;;5086275;28;20312;-81
2022/01/03 13:53:33;;;;;;;9.30;9.00;;;9.60;99.90;;;;;;5086461;28;20222;-81
2022/01/03 13:56:03;;;;;;;9.30;9.00;;;9.60;99.90;;;;;;5086257;28;20234;-82
2022/01/03 13:58:32;;;;;;;8.97;8.67;;;9.60;99.90;;;;;;5086106;28;20226;-81
2022/01/03 14:01:10;;;;;;;9.13;8.83;;;9.70;99.90;;;;;;5086960;28;20237;-82
2022/01/03 14:03:40;;;;;;;9.10;8.80;;;9.70;99.90;;;;;;5086881;28;20241;-82
2022/01/03 14:06:20;;;;;;;9.33;9.03;;;9.70;99.90;;;;;;5087735;28;20218;-82
2022/01/03 14:08:50;;;;;;;9.27;8.97;;;9.70;99.90;;;;;;5097541;28;20210;-81
2022/01/03 14:11:26;;;;;;;9.00;8.73;;;9.70;99.90;;;;;;5098963;28;20293;-81
2022/01/03 14:13:56;;;;;;;8.67;8.47;;;9.80;99.90;;;;;;5098918;28;20225;-80
2022/01/03 14:16:27;;;;;;;8.80;8.60;;;9.80;99.90;;;;;;5099116;28;20221;-80
2022/01/03 14:18:55;;;;;;;9.20;8.90;;;9.80;99.90;;;;;;5095600;28;20223;-81
2022/01/03 14:21:34;;;;;;;8.87;8.67;;;9.80;99.90;;;;;;5094022;28;20256;-81
2022/01/03 14:24:10;;;;;;;8.80;8.60;;;9.90;99.90;;;;;;5093520;28;20237;-81
2022/01/03 14:26:40;;;;;;;8.77;8.57;;;9.90;99.90;;;;;;5106326;28;20237;-82
2022/01/03 14:29:18;;;;;;;8.77;8.57;;;9.90;99.90;;;;;;5108368;28;20229;-83